Weather at Bridgeport Municipal Airport

Public forecast

Using degrees Fahrenheit for public forecast. Weather courtesy of forecast.io.

Current aviation weather report (METAR) for Bridgeport Municipal Airport

2024/05/29 18:55 (retrieved 27 minutes ago)

KXBP 291855Z AUTO 08004KT 10SM CLR 29/17 A3006 RMK AO2 T02880170

Closest aviation forecast (TAF) to Bridgeport Municipal Airport

Closest forecast is Perot Field/Fort Worth Alliance Airport, 27.9 nm (51.7 km) ESE.

2024/05/29 18:22 (retrieved 60 minutes ago)

TAF KAFW 291720Z 2918/3018 12008KT P6SM BKN060 FM301000 15008KT P6SM VCSH BKN015 FM301500 15010KT P6SM VCTS OVC025CB TEMPO 3015/3018 30020G30KT 2SM TSRA